createdAt,value
2019-02-22T00:00:51.954Z,29.70
2019-02-22T00:03:22.410Z,30.97
2019-02-22T00:05:52.679Z,31.47
2019-02-22T00:08:26.175Z,30.57
2019-02-22T00:10:56.828Z,31.37
2019-02-22T00:13:27.397Z,31.13
2019-02-22T00:15:57.848Z,30.67
2019-02-22T00:18:28.853Z,30.47
2019-02-22T00:20:59.170Z,31.23
2019-02-22T00:23:30.126Z,31.00
2019-02-22T00:26:02.607Z,30.33
2019-02-22T00:28:37.014Z,31.00
2019-02-22T00:31:07.199Z,31.37
2019-02-22T00:33:37.859Z,30.97
2019-02-22T00:36:09.033Z,30.27
2019-02-22T00:38:39.183Z,29.97
2019-02-22T00:41:09.354Z,30.10
2019-02-22T00:43:41.136Z,31.00
2019-02-22T00:46:11.847Z,30.30
2019-02-22T00:48:44.864Z,31.13
2019-02-22T00:51:15.527Z,30.40
2019-02-22T00:53:46.176Z,30.07
2019-02-22T00:56:17.926Z,30.47
2019-02-22T00:58:51.421Z,31.47
2019-02-22T01:01:21.608Z,31.10
2019-02-22T01:03:51.855Z,31.50
2019-02-22T01:06:23.385Z,32.13
2019-02-22T01:08:54.081Z,32.10
2019-02-22T01:11:24.729Z,32.77
2019-02-22T01:13:57.694Z,32.87
2019-02-22T01:16:28.761Z,31.97
2019-02-22T01:18:59.082Z,33.43
2019-02-22T01:21:29.233Z,31.70
2019-02-22T01:24:02.182Z,32.40
2019-02-22T01:26:33.597Z,32.43
2019-02-22T01:29:05.527Z,32.43
2019-02-22T01:31:35.714Z,32.97
2019-02-22T01:34:07.452Z,32.93
2019-02-22T01:36:41.204Z,32.97
2019-02-22T01:39:14.200Z,33.40
2019-02-22T01:41:45.946Z,34.00
2019-02-22T01:44:26.467Z,33.33
2019-02-22T01:46:56.945Z,33.63
2019-02-22T01:49:27.583Z,33.77
2019-02-22T01:51:58.441Z,33.67
2019-02-22T01:54:30.995Z,34.83
2019-02-22T01:57:01.176Z,34.23
2019-02-22T01:59:32.389Z,34.97
2019-02-22T02:02:02.559Z,34.53
2019-02-22T02:04:32.767Z,36.10
2019-02-22T02:07:03.570Z,35.63
2019-02-22T02:09:34.700Z,36.10
2019-02-22T02:12:04.868Z,35.63
2019-02-22T02:14:35.576Z,35.23
2019-02-22T02:17:06.547Z,34.73
2019-02-22T02:19:37.417Z,35.73
2019-02-22T02:22:07.993Z,35.70
2019-02-22T02:24:40.334Z,35.50
2019-02-22T02:27:10.987Z,35.13
2019-02-22T02:29:43.616Z,33.30
2019-02-22T02:32:14.439Z,34.20
2019-02-22T02:34:45.042Z,34.13
2019-02-22T02:37:17.611Z,34.07
2019-02-22T02:39:48.689Z,34.97
2019-02-22T02:42:19.187Z,35.20
2019-02-22T02:44:49.977Z,33.90
2019-02-22T02:47:20.533Z,34.03
2019-02-22T02:49:51.709Z,33.87
2019-02-22T02:52:22.155Z,33.60
2019-02-22T02:54:52.900Z,33.73
2019-02-22T02:57:23.757Z,34.50
2019-02-22T02:59:55.361Z,34.70
2019-02-22T03:02:28.711Z,33.53
2019-02-22T03:04:59.290Z,34.90
2019-02-22T03:07:44.355Z,34.87
2019-02-22T03:10:16.287Z,34.00
2019-02-22T03:12:47.525Z,34.57
2019-02-22T03:15:20.241Z,35.03
2019-02-22T03:17:50.840Z,33.70
2019-02-22T03:20:21.782Z,32.47
2019-02-22T03:22:52.269Z,30.97
2019-02-22T03:25:22.949Z,31.03
2019-02-22T03:27:53.123Z,29.80
2019-02-22T03:30:24.773Z,30.47
2019-02-22T03:32:55.637Z,29.17
2019-02-22T03:35:26.914Z,29.63
2019-02-22T03:37:58.605Z,29.03
2019-02-22T03:40:29.302Z,29.87
2019-02-22T03:42:59.497Z,29.23
2019-02-22T03:45:29.675Z,28.23
2019-02-22T03:48:01.148Z,27.97
2019-02-22T03:50:32.280Z,27.93
2019-02-22T03:53:09.055Z,28.33
2019-02-22T03:55:39.246Z,27.40
2019-02-22T03:58:10.100Z,28.43
2019-02-22T04:00:41.656Z,27.90
2019-02-22T04:03:12.869Z,27.83
2019-02-22T04:05:43.099Z,26.03
2019-02-22T04:08:13.896Z,27.33
2019-02-22T04:10:44.930Z,26.90
2019-02-22T04:13:15.292Z,26.83
2019-02-22T04:15:45.490Z,26.37
2019-02-22T04:18:15.749Z,26.53
2019-02-22T04:20:47.626Z,25.40
2019-02-22T04:23:18.156Z,25.70
2019-02-22T04:25:49.095Z,25.97
2019-02-22T04:28:19.620Z,25.93
2019-02-22T04:30:51.038Z,25.43
2019-02-22T04:33:21.208Z,25.47
2019-02-22T04:35:53.537Z,26.70
2019-02-22T04:38:24.233Z,25.50
2019-02-22T04:40:56.261Z,27.30
2019-02-22T04:43:27.496Z,26.80
2019-02-22T04:45:57.984Z,26.33
2019-02-22T04:48:29.466Z,27.13
2019-02-22T04:51:01.839Z,26.60
2019-02-22T04:53:34.019Z,26.23
2019-02-22T04:56:05.172Z,27.30
2019-02-22T04:58:35.967Z,27.23
2019-02-22T05:01:07.403Z,27.80
2019-02-22T05:03:38.041Z,28.00
2019-02-22T05:06:09.366Z,27.10
2019-02-22T05:08:39.690Z,28.00
2019-02-22T05:11:10.776Z,27.90
2019-02-22T05:13:41.592Z,27.93
2019-02-22T05:16:11.850Z,27.73
2019-02-22T05:18:42.033Z,28.07
2019-02-22T05:21:13.614Z,28.80
2019-02-22T05:23:44.104Z,29.63
2019-02-22T05:26:14.372Z,30.53
2019-02-22T05:28:44.962Z,30.97
2019-02-22T05:31:16.071Z,31.17
2019-02-22T05:33:46.592Z,31.67
2019-02-22T05:36:17.731Z,30.60
2019-02-22T05:38:49.172Z,31.10
2019-02-22T05:41:20.807Z,31.27
2019-02-22T05:43:50.986Z,32.90
2019-02-22T05:46:21.686Z,33.17
2019-02-22T05:48:52.979Z,33.17
2019-02-22T05:51:24.088Z,34.40
2019-02-22T05:53:58.277Z,34.97
2019-02-22T05:56:28.466Z,34.03
2019-02-22T05:58:58.628Z,33.83
2019-02-22T06:01:29.515Z,35.47
2019-02-22T06:04:00.131Z,33.77
2019-02-22T06:06:30.367Z,35.00
2019-02-22T06:09:00.811Z,33.47
2019-02-22T06:11:33.153Z,35.13
2019-02-22T06:14:10.473Z,33.60
2019-02-22T06:17:14.691Z,35.63
2019-02-22T06:20:03.886Z,34.37
2019-02-22T06:22:36.328Z,34.80
2019-02-22T06:25:07.652Z,33.97
2019-02-22T06:27:37.845Z,34.63
2019-02-22T06:30:09.176Z,34.27
2019-02-22T06:32:42.144Z,35.47
2019-02-22T06:35:12.136Z,35.37
2019-02-22T06:37:43.799Z,35.87
2019-02-22T06:40:24.674Z,36.03
2019-02-22T06:42:55.377Z,36.13
2019-02-22T06:45:27.206Z,35.97
2019-02-22T06:48:00.526Z,35.90
2019-02-22T06:50:33.975Z,37.70
2019-02-22T06:53:04.831Z,37.60
2019-02-22T06:55:36.097Z,36.83
2019-02-22T06:58:07.416Z,38.17
2019-02-22T07:00:38.455Z,36.87
2019-02-22T07:03:10.973Z,39.40
2019-02-22T07:05:41.626Z,38.80
2019-02-22T07:08:11.919Z,38.93
2019-02-22T07:11:00.411Z,39.13
2019-02-22T07:13:31.452Z,39.53
2019-02-22T07:16:02.509Z,39.47
2019-02-22T07:18:32.837Z,38.07
2019-02-22T07:21:03.024Z,38.30
2019-02-22T07:23:33.268Z,37.40
2019-02-22T07:26:04.091Z,37.73
2019-02-22T07:28:36.456Z,38.30
2019-02-22T07:31:07.764Z,40.57
2019-02-22T07:33:38.038Z,38.30
2019-02-22T07:36:08.696Z,38.27
2019-02-22T07:38:39.817Z,38.00
2019-02-22T07:41:12.209Z,39.03
2019-02-22T07:43:42.495Z,38.07
2019-02-22T07:46:13.847Z,37.87
2019-02-22T07:48:48.263Z,37.73
2019-02-22T07:51:19.151Z,37.23
2019-02-22T07:53:49.379Z,36.27
2019-02-22T07:56:19.875Z,37.63
2019-02-22T07:58:51.078Z,37.33
2019-02-22T08:01:22.332Z,37.70
2019-02-22T08:03:55.378Z,37.67
2019-02-22T08:06:26.161Z,37.67
2019-02-22T08:08:56.895Z,37.47
2019-02-22T08:11:28.034Z,37.17
2019-02-22T08:13:58.852Z,38.20
2019-02-22T08:16:30.673Z,36.73
2019-02-22T08:19:02.835Z,37.97
2019-02-22T08:21:34.431Z,37.10
2019-02-22T08:24:05.692Z,37.17
2019-02-22T08:26:35.885Z,36.27
2019-02-22T08:29:06.530Z,37.57
2019-02-22T08:31:38.290Z,35.90
2019-02-22T08:34:10.226Z,39.67
2019-02-22T08:36:41.297Z,36.50
2019-02-22T08:39:12.932Z,35.67
2019-02-22T08:41:45.238Z,37.63
2019-02-22T08:44:15.917Z,37.40
2019-02-22T08:46:47.030Z,38.67
2019-02-22T08:49:20.230Z,40.13
2019-02-22T08:51:50.444Z,39.90
2019-02-22T08:54:21.351Z,39.93
2019-02-22T08:56:52.515Z,40.37
2019-02-22T08:59:24.632Z,40.63
2019-02-22T09:01:55.904Z,40.87
2019-02-22T09:04:27.571Z,41.47
2019-02-22T09:07:00.818Z,39.83
2019-02-22T09:09:31.761Z,41.50
2019-02-22T09:12:02.915Z,40.37
2019-02-22T09:14:33.867Z,39.70
2019-02-22T09:17:04.665Z,41.43
2019-02-22T09:19:36.971Z,40.27
2019-02-22T09:22:07.221Z,84.77
2019-02-22T09:24:37.789Z,41.97
2019-02-22T09:27:08.395Z,38.33
2019-02-22T09:29:39.383Z,37.70
2019-02-22T09:32:10.079Z,38.53
2019-02-22T09:34:46.195Z,37.33
2019-02-22T09:37:26.977Z,36.87
2019-02-22T09:40:09.098Z,37.57
2019-02-22T09:42:41.752Z,37.97
2019-02-22T09:45:20.327Z,35.90
2019-02-22T09:47:51.780Z,37.03
2019-02-22T09:50:23.455Z,35.10
2019-02-22T09:52:53.618Z,34.83
2019-02-22T09:55:25.783Z,34.90
2019-02-22T09:57:57.294Z,34.97
2019-02-22T10:00:28.411Z,33.70
2019-02-22T10:02:58.551Z,33.93
2019-02-22T10:05:29.805Z,32.10
2019-02-22T10:08:00.330Z,32.87
2019-02-22T10:10:30.982Z,33.67
2019-02-22T10:13:02.023Z,32.57
2019-02-22T10:15:32.932Z,31.90
2019-02-22T10:18:03.435Z,31.80
2019-02-22T10:20:33.636Z,31.70
2019-02-22T10:23:05.173Z,31.60
2019-02-22T10:25:36.570Z,30.57
2019-02-22T10:28:17.212Z,28.20
2019-02-22T10:30:41.920Z,28.10
2019-02-22T10:33:13.100Z,28.67
2019-02-22T10:35:45.866Z,32.60
2019-02-22T10:38:19.948Z,35.37
2019-02-22T10:40:50.873Z,57.93
2019-02-22T10:43:22.165Z,30.70
2019-02-22T10:45:52.850Z,27.27
2019-02-22T10:48:23.019Z,28.53
2019-02-22T10:50:53.248Z,27.27
2019-02-22T10:53:23.453Z,24.50
2019-02-22T10:55:54.538Z,23.63
2019-02-22T10:58:25.350Z,22.83
2019-02-22T11:00:55.561Z,24.47
2019-02-22T11:03:26.124Z,23.67
2019-02-22T11:05:56.655Z,23.33
2019-02-22T11:08:26.848Z,22.53
2019-02-22T11:10:58.228Z,21.13
2019-02-22T11:13:28.915Z,18.93
2019-02-22T11:15:59.106Z,18.40
2019-02-22T11:18:30.131Z,18.50
2019-02-22T11:21:00.828Z,17.47
2019-02-22T11:23:30.987Z,16.13
2019-02-22T11:26:02.645Z,15.13
2019-02-22T11:28:33.307Z,13.10
2019-02-22T11:31:04.348Z,13.53
2019-02-22T11:33:34.932Z,43.70
2019-02-22T11:36:05.749Z,14.03
2019-02-22T11:38:37.210Z,13.10
2019-02-22T11:41:07.938Z,14.00
2019-02-22T11:43:38.985Z,14.27
2019-02-22T11:46:09.786Z,14.13
2019-02-22T11:48:40.900Z,13.30
2019-02-22T11:51:11.088Z,13.27
2019-02-22T11:53:41.646Z,14.07
2019-02-22T11:56:12.925Z,12.27
2019-02-22T11:58:43.115Z,12.97
2019-02-22T12:01:14.469Z,11.60
2019-02-22T12:03:45.038Z,11.43
2019-02-22T12:06:16.181Z,11.60
2019-02-22T12:08:46.443Z,10.90
2019-02-22T12:11:17.822Z,10.93
2019-02-22T12:13:48.923Z,10.50
2019-02-22T12:16:19.452Z,10.17
2019-02-22T12:18:50.729Z,10.43
2019-02-22T12:21:23.146Z,9.63
2019-02-22T12:23:53.765Z,9.20
2019-02-22T12:26:25.114Z,8.40
2019-02-22T12:28:55.878Z,8.00
2019-02-22T12:31:27.063Z,7.73
2019-02-22T12:33:57.206Z,7.93
2019-02-22T12:36:27.688Z,5.97
2019-02-22T12:38:58.194Z,5.47
2019-02-22T12:41:29.035Z,5.47
2019-02-22T12:44:03.787Z,5.10
2019-02-22T12:46:34.808Z,5.00
2019-02-22T12:49:05.143Z,5.27
2019-02-22T12:51:35.809Z,6.50
2019-02-22T12:54:06.643Z,8.27
2019-02-22T12:59:09.198Z,7.97
2019-02-22T13:01:39.370Z,4.97
2019-02-22T13:04:11.156Z,4.93
2019-02-22T13:06:41.871Z,5.37
2019-02-22T13:09:12.642Z,5.50
2019-02-22T13:11:42.890Z,5.37
2019-02-22T13:14:15.825Z,5.03
2019-02-22T13:16:47.088Z,4.37
2019-02-22T13:19:19.393Z,4.28
2019-02-22T13:21:50.075Z,4.25
2019-02-22T13:24:20.228Z,3.90
2019-02-22T13:26:51.077Z,3.75
2019-02-22T13:29:21.282Z,3.15
2019-02-22T13:31:53.418Z,3.72
2019-02-22T13:34:24.352Z,4.20
2019-02-22T13:36:56.701Z,3.45
2019-02-22T13:39:28.032Z,3.62
2019-02-22T13:41:58.642Z,3.50
2019-02-22T13:44:32.214Z,3.50
2019-02-22T13:47:02.888Z,3.53
2019-02-22T13:49:33.100Z,3.63
2019-02-22T13:52:03.250Z,3.90
2019-02-22T13:54:34.374Z,3.97
2019-02-22T13:57:05.081Z,3.80
2019-02-22T13:59:35.388Z,3.63
2019-02-22T14:02:05.995Z,4.07
2019-02-22T14:04:37.033Z,3.83
2019-02-22T14:07:08.038Z,4.00
2019-02-22T14:09:39.568Z,3.63
2019-02-22T14:12:11.361Z,3.90
2019-02-22T14:14:42.555Z,4.40
2019-02-22T14:17:13.528Z,4.20
2019-02-22T14:19:44.117Z,4.40
2019-02-22T14:22:14.927Z,4.27
2019-02-22T14:24:45.952Z,4.13
2019-02-22T14:27:16.897Z,4.40
2019-02-22T14:29:48.067Z,4.33
2019-02-22T14:32:18.652Z,4.17
2019-02-22T14:34:48.800Z,4.30
2019-02-22T14:37:20.107Z,4.37
2019-02-22T14:40:01.004Z,4.10
2019-02-22T14:42:23.360Z,4.10
2019-02-22T14:44:55.907Z,4.00
2019-02-22T14:47:27.575Z,3.90
2019-02-22T14:49:58.053Z,4.20
2019-02-22T14:52:28.622Z,4.37
2019-02-22T14:54:59.872Z,3.80
2019-02-22T14:57:31.864Z,4.10
2019-02-22T15:00:02.046Z,4.10
2019-02-22T15:02:32.824Z,4.03
2019-02-22T15:05:03.550Z,4.23
2019-02-22T15:07:34.530Z,3.93
2019-02-22T15:10:05.752Z,4.07
2019-02-22T15:12:37.381Z,4.30
2019-02-22T15:15:09.305Z,4.63
2019-02-22T15:17:55.521Z,3.80
2019-02-22T15:20:26.686Z,3.80
2019-02-22T15:22:58.459Z,4.10
2019-02-22T15:25:29.902Z,3.70
2019-02-22T15:28:01.597Z,4.13
2019-02-22T15:30:32.901Z,4.03
2019-02-22T15:33:05.577Z,3.90
2019-02-22T15:35:35.893Z,3.80
2019-02-22T15:38:06.608Z,3.97
2019-02-22T15:40:39.286Z,4.03
2019-02-22T15:43:10.664Z,3.97
2019-02-22T15:45:42.224Z,4.47
2019-02-22T15:48:14.580Z,4.50
2019-02-22T15:50:46.248Z,4.90
2019-02-22T15:53:17.627Z,4.97
2019-02-22T15:55:48.405Z,4.97
2019-02-22T15:58:21.868Z,5.10
2019-02-22T16:00:53.543Z,4.63
2019-02-22T16:03:26.818Z,4.50
2019-02-22T16:05:58.070Z,4.40
2019-02-22T16:08:34.932Z,3.93
2019-02-22T16:11:08.224Z,4.50
2019-02-22T16:14:07.298Z,5.00
2019-02-22T16:16:44.990Z,4.40
2019-02-22T16:19:19.409Z,4.37
2019-02-22T16:21:49.590Z,4.53
2019-02-22T16:24:20.364Z,4.37
2019-02-22T16:27:03.753Z,4.70
2019-02-22T16:29:36.987Z,5.00
2019-02-22T16:32:07.239Z,5.10
2019-02-22T16:34:43.552Z,4.93
2019-02-22T16:37:09.760Z,4.67
2019-02-22T16:39:40.998Z,4.80
2019-02-22T16:42:12.842Z,5.17
2019-02-22T16:44:43.633Z,4.93
2019-02-22T16:47:15.223Z,4.50
2019-02-22T16:49:46.718Z,5.03
2019-02-22T16:52:17.299Z,4.73
2019-02-22T16:54:48.057Z,4.83
2019-02-22T16:57:18.854Z,4.80
2019-02-22T16:59:51.201Z,4.90
2019-02-22T17:02:21.337Z,4.90
2019-02-22T17:04:52.134Z,4.87
2019-02-22T17:07:22.327Z,4.90
2019-02-22T17:09:53.041Z,5.07
2019-02-22T17:12:23.638Z,5.43
2019-02-22T17:14:54.300Z,5.97
2019-02-22T17:17:24.491Z,6.07
2019-02-22T17:19:55.121Z,5.50
2019-02-22T17:22:26.270Z,5.43
2019-02-22T17:24:57.379Z,6.00
2019-02-22T17:27:29.900Z,5.50
2019-02-22T17:30:02.408Z,5.80
2019-02-22T17:32:34.597Z,5.60
2019-02-22T17:35:05.937Z,6.10
2019-02-22T17:37:36.175Z,6.23
2019-02-22T17:40:10.197Z,5.87
2019-02-22T17:42:40.968Z,6.20
2019-02-22T17:45:13.163Z,6.27
2019-02-22T17:47:45.339Z,6.30
2019-02-22T17:50:16.454Z,6.40
2019-02-22T17:52:46.943Z,5.70
2019-02-22T17:55:17.157Z,6.10
2019-02-22T17:57:47.314Z,6.10
2019-02-22T18:00:21.442Z,6.03
2019-02-22T18:02:51.724Z,6.00
2019-02-22T18:05:21.914Z,6.00
2019-02-22T18:07:52.102Z,6.13
2019-02-22T18:10:22.650Z,6.20
2019-02-22T18:12:52.821Z,6.63
2019-02-22T18:15:23.013Z,6.33
2019-02-22T18:17:53.200Z,6.83
2019-02-22T18:20:24.537Z,7.00
2019-02-22T18:22:55.199Z,7.13
2019-02-22T18:25:25.743Z,7.57
2019-02-22T18:27:57.882Z,7.87
2019-02-22T18:30:29.363Z,6.70
2019-02-22T18:32:59.531Z,7.70
2019-02-22T18:35:30.140Z,7.83
2019-02-22T18:38:01.957Z,8.00
2019-02-22T18:40:32.119Z,8.27
2019-02-22T18:43:02.305Z,7.77
2019-02-22T18:45:32.933Z,8.20
2019-02-22T18:48:05.025Z,8.20
2019-02-22T18:50:36.478Z,8.53
2019-02-22T18:53:06.633Z,9.00
2019-02-22T18:55:37.449Z,8.43
2019-02-22T18:58:08.644Z,8.50
2019-02-22T19:00:39.358Z,8.10
2019-02-22T19:03:11.050Z,9.40
2019-02-22T19:05:41.565Z,9.00
2019-02-22T19:08:11.733Z,9.60
2019-02-22T19:10:43.089Z,9.10
2019-02-22T19:13:14.310Z,9.07
2019-02-22T19:15:44.831Z,10.40
2019-02-22T19:18:14.984Z,9.07
2019-02-22T19:20:46.133Z,10.87
2019-02-22T19:23:16.322Z,11.03
2019-02-22T19:25:46.476Z,10.60
2019-02-22T19:28:17.090Z,12.27
2019-02-22T19:30:48.240Z,11.53
2019-02-22T19:33:18.863Z,12.87
2019-02-22T19:35:49.035Z,13.37
2019-02-22T19:38:19.460Z,13.00
2019-02-22T19:40:49.922Z,13.33
2019-02-22T19:43:21.956Z,13.50
2019-02-22T19:45:53.583Z,12.77
2019-02-22T19:48:25.351Z,13.83
2019-02-22T19:50:55.984Z,13.77
2019-02-22T19:53:26.594Z,13.27
2019-02-22T19:55:56.764Z,13.40
2019-02-22T19:58:27.223Z,14.20
2019-02-22T20:00:57.399Z,13.30
2019-02-22T20:03:28.534Z,12.77
2019-02-22T20:05:59.602Z,12.87
2019-02-22T20:08:31.463Z,13.17
2019-02-22T20:11:02.328Z,13.07
2019-02-22T20:13:32.674Z,12.33
2019-02-22T20:16:03.904Z,13.20
2019-02-22T20:18:35.403Z,13.40
2019-02-22T20:21:05.593Z,13.17
2019-02-22T20:23:35.879Z,12.57
2019-02-22T20:26:07.229Z,13.70
2019-02-22T20:28:37.464Z,13.50
2019-02-22T20:31:19.576Z,13.23
2019-02-22T20:33:40.936Z,13.80
2019-02-22T20:36:12.289Z,13.47
2019-02-22T20:38:43.015Z,13.23
2019-02-22T20:41:13.429Z,12.83
2019-02-22T20:43:43.684Z,12.43
2019-02-22T20:46:14.714Z,12.27
2019-02-22T20:48:48.066Z,12.20
2019-02-22T20:51:20.043Z,13.17
2019-02-22T20:53:50.210Z,12.07
2019-02-22T20:56:20.823Z,12.27
2019-02-22T20:58:51.369Z,13.23
2019-02-22T21:01:22.100Z,11.80
2019-02-22T21:03:52.522Z,12.43
2019-02-22T21:06:24.740Z,12.70
2019-02-22T21:08:56.152Z,11.77
2019-02-22T21:11:26.884Z,12.60
2019-02-22T21:13:59.746Z,13.20
2019-02-22T21:16:31.546Z,12.53
2019-02-22T21:19:02.578Z,13.03
2019-02-22T21:21:35.493Z,12.80
2019-02-22T21:24:06.077Z,11.97
2019-02-22T21:26:36.334Z,12.27
2019-02-22T21:29:06.526Z,13.03
2019-02-22T21:31:37.409Z,12.50
2019-02-22T21:34:07.591Z,12.70
2019-02-22T21:36:39.485Z,12.03
2019-02-22T21:39:10.411Z,11.83
2019-02-22T21:41:41.408Z,12.57
2019-02-22T21:44:11.895Z,12.30
2019-02-22T21:46:42.522Z,12.43
2019-02-22T21:49:14.345Z,13.10
2019-02-22T21:51:46.263Z,12.43
2019-02-22T21:54:16.432Z,13.20
2019-02-22T21:56:46.709Z,13.37
2019-02-22T21:59:17.410Z,13.80
2019-02-22T22:01:48.036Z,13.50
2019-02-22T22:04:18.553Z,13.37
2019-02-22T22:06:49.901Z,13.37
2019-02-22T22:09:22.141Z,14.57
2019-02-22T22:11:53.527Z,14.43
2019-02-22T22:14:25.036Z,14.10
2019-02-22T22:16:55.207Z,14.67
2019-02-22T22:19:25.404Z,14.10
2019-02-22T22:21:56.014Z,13.33
2019-02-22T22:24:26.599Z,14.17
2019-02-22T22:26:57.356Z,14.03
2019-02-22T22:29:27.548Z,15.40
2019-02-22T22:31:57.754Z,15.87
2019-02-22T22:34:27.931Z,16.50
2019-02-22T22:36:59.650Z,16.63
2019-02-22T22:39:30.470Z,15.63
2019-02-22T22:42:02.479Z,16.03
2019-02-22T22:44:33.628Z,16.60
2019-02-22T22:47:04.393Z,15.03
2019-02-22T22:49:35.959Z,15.97
2019-02-22T22:52:09.798Z,15.13
2019-02-22T22:57:23.413Z,14.93
2019-02-22T22:59:53.574Z,15.20
2019-02-22T23:02:24.545Z,14.77
2019-02-22T23:04:55.049Z,14.10
2019-02-22T23:07:25.750Z,13.90
2019-02-22T23:09:55.913Z,14.13
2019-02-22T23:12:27.725Z,14.43
2019-02-22T23:14:59.438Z,13.83
2019-02-22T23:17:30.863Z,14.13
2019-02-22T23:20:02.648Z,13.43
2019-02-22T23:22:33.812Z,12.90
2019-02-22T23:25:04.228Z,13.83
2019-02-22T23:27:35.542Z,13.90
2019-02-22T23:30:06.154Z,13.20
2019-02-22T23:32:36.685Z,13.27
2019-02-22T23:35:06.965Z,14.00
2019-02-22T23:37:37.742Z,13.60
2019-02-22T23:40:07.923Z,14.10
2019-02-22T23:42:38.649Z,14.63
2019-02-22T23:45:10.001Z,14.60
2019-02-22T23:47:41.042Z,14.27
2019-02-22T23:50:12.391Z,14.97
2019-02-22T23:52:42.537Z,15.77
2019-02-22T23:55:13.344Z,16.57
2019-02-22T23:57:46.553Z,17.40
